Albenga, Italy

8:47 PM CEST on May 27, 2015 (GMT +0200)
Casa Ghiglione, Marmoreo | | Change Station
CLOSE
Current Station
Personal Weather Station
Location: Casanova Lerrone, LIGURIA
Elevation: 1043 ft
Nearby Weather Stations

Elev 1043 ft 44.04 °N, 8.06 °E | Updated 1 minute ago

Clear
Clear
66.3 °F
Feels Like 66.3 °F
N
2.0
Wind Variable Wind from West
Gusts 2.5 mph

Today
High -- | Low -- °F
--% Chance of Precip.
Yesterday
High -- | Low -- °F
Precip. -- in
5:50 AM 8:58 PM
Waxing Gibbous, 69% visible
Pressure 29.95 in
Visibility -9999.0 miles
Clouds
Dew Point 39 °F
Humidity 37%
Rainfall 0.00 in
Snow Depth Not available.
UV 0.0 out of 12
Pollen Not available.
Air Quality Not available.
Flu Activity Not available.
METAR LIMU 271755Z 22014KT CAVOK 21/05 Q1014 RMK SKC QUK 2 QUL 1 S VIS MAR 50 KM VIS MIN 9999

More Conditions Fewer Conditions

Pressure 29.95 in
Visibility -9999.0 miles
Clouds
Dew Point 39 °F
Humidity 37%
Rainfall 0.00 in
Snow Depth Not available.
UV 0.0 out of 12
Pollen Not available.
Air Quality Not available.
Flu Activity Not available.
METAR LIMU 271755Z 22014KT CAVOK 21/05 Q1014 RMK SKC QUK 2 QUL 1 S VIS MAR 50 KM VIS MIN 9999

More Conditions Fewer Conditions

10-Day Weather Forecast

Almanac

Astronomy

May. 27, 2015 Rise Set
Actual Time
Civil Twilight
Nautical Twilight
Astronomical Twilight
Moon
Length of Visible Light
Length of Day
Tomorrow will be .
, % of the Moon is Illuminated

Today's Extremes

Country Highs Country Lows

Community

WunderPhotos

Upload Photos

1,824,757 photos uploaded!

WunderBlogs® & News

Nearby

Air Quality

  Air Quality AQ Index Pollutant
Not available.

Snow Depth

Station Depth Elevation

Earthquake Activity

City Distance Mag. Time & Date
Minimum magnitude displayed is 2.5.

Coastal Water Temperatures

Place Temperature

Stations

Nearby Weather Stations

Station Location Temp. Windchill Dew Point Humidity Wind Precip. Elev Updated Type